createdAt,value
2022-09-28T00:01:14.921Z,9.00
2022-09-28T00:03:48.199Z,9.00
2022-09-28T00:06:17.371Z,9.00
2022-09-28T00:08:44.553Z,9.00
2022-09-28T00:11:15.803Z,9.00
2022-09-28T00:13:43.904Z,9.00
2022-09-28T00:16:14.800Z,9.00
2022-09-28T00:18:42.692Z,9.00
2022-09-28T00:21:16.574Z,9.00
2022-09-28T00:24:02.335Z,9.00
2022-09-28T00:26:31.856Z,9.00
2022-09-28T00:29:02.622Z,9.00
2022-09-28T00:31:33.048Z,8.90
2022-09-28T00:34:01.935Z,8.90
2022-09-28T00:36:31.018Z,8.80
2022-09-28T00:38:58.908Z,8.80
2022-09-28T00:41:28.448Z,8.70
2022-09-28T00:44:24.952Z,8.60
2022-09-28T00:47:03.783Z,8.50
2022-09-28T00:49:50.137Z,8.40
2022-09-28T00:52:23.232Z,8.40
2022-09-28T00:54:51.952Z,8.30
2022-09-28T00:57:20.408Z,8.30
2022-09-28T00:59:47.731Z,8.20
2022-09-28T01:02:14.691Z,8.20
2022-09-28T01:04:42.329Z,8.20
2022-09-28T01:07:10.158Z,8.20
2022-09-28T01:09:41.066Z,8.10
2022-09-28T01:12:08.508Z,8.10
2022-09-28T01:14:36.084Z,8.00
2022-09-28T01:17:11.237Z,8.10
2022-09-28T01:20:23.986Z,8.00
2022-09-28T01:23:31.883Z,8.10
2022-09-28T01:26:15.140Z,8.10
2022-09-28T01:28:44.737Z,8.00
2022-09-28T01:31:17.903Z,8.10
2022-09-28T01:33:56.979Z,8.10
2022-09-28T01:36:48.066Z,8.10
2022-09-28T01:39:35.412Z,8.00
2022-09-28T01:42:12.523Z,8.10
2022-09-28T01:44:45.178Z,8.10
2022-09-28T01:47:15.300Z,8.10
2022-09-28T01:49:51.073Z,8.10
2022-09-28T01:52:41.053Z,8.20
2022-09-28T01:55:31.029Z,8.20
2022-09-28T01:58:03.307Z,8.20
2022-09-28T02:00:32.659Z,8.20
2022-09-28T02:03:15.097Z,8.30
2022-09-28T02:05:53.292Z,8.30
2022-09-28T02:08:32.049Z,8.30
2022-09-28T02:11:23.666Z,8.20
2022-09-28T02:13:55.194Z,8.20
2022-09-28T02:16:29.049Z,8.30
2022-09-28T02:18:56.212Z,8.30
2022-09-28T02:21:42.242Z,8.30
2022-09-28T02:24:37.688Z,8.30
2022-09-28T02:27:15.400Z,8.40
2022-09-28T02:29:45.109Z,8.40
2022-09-28T02:32:13.308Z,8.40
2022-09-28T02:34:40.460Z,8.50
2022-09-28T02:37:08.402Z,8.60
2022-09-28T02:39:35.752Z,8.60
2022-09-28T02:42:29.759Z,8.70
2022-09-28T02:45:08.251Z,8.70
2022-09-28T02:47:58.520Z,8.70
2022-09-28T02:50:37.651Z,8.80
2022-09-28T02:53:20.802Z,8.90
2022-09-28T02:55:56.954Z,8.90
2022-09-28T02:58:27.196Z,8.90
2022-09-28T03:01:06.105Z,8.90
2022-09-28T03:03:50.422Z,8.90
2022-09-28T03:06:23.169Z,8.90
2022-09-28T03:09:17.921Z,8.90
2022-09-28T03:11:51.066Z,8.90
2022-09-28T03:14:19.675Z,8.90
2022-09-28T03:16:52.140Z,8.90
2022-09-28T03:19:24.946Z,9.00
2022-09-28T03:21:52.580Z,8.90
2022-09-28T03:24:19.498Z,8.90
2022-09-28T03:26:46.738Z,9.00
2022-09-28T03:29:14.258Z,8.90
2022-09-28T03:31:44.436Z,9.00
2022-09-28T03:34:12.652Z,8.90
2022-09-28T03:36:39.422Z,8.90
2022-09-28T03:39:07.049Z,9.00
2022-09-28T03:41:33.891Z,9.00
2022-09-28T03:44:01.300Z,9.00
2022-09-28T03:46:30.098Z,9.10
2022-09-28T03:49:05.253Z,9.10
2022-09-28T03:51:32.175Z,9.10
2022-09-28T03:53:59.025Z,9.20
2022-09-28T03:56:26.587Z,9.20
2022-09-28T03:58:54.249Z,9.10
2022-09-28T04:01:21.526Z,9.10
2022-09-28T04:03:55.469Z,9.10
2022-09-28T04:06:25.036Z,9.10
2022-09-28T04:08:52.912Z,9.10
2022-09-28T04:11:19.941Z,9.20
2022-09-28T04:13:50.523Z,9.20
2022-09-28T04:16:19.114Z,9.20
2022-09-28T04:19:04.376Z,9.20
2022-09-28T04:21:53.244Z,9.20
2022-09-28T04:24:22.117Z,9.30
2022-09-28T04:26:49.563Z,9.30
2022-09-28T04:29:18.316Z,9.30
2022-09-28T04:31:56.346Z,9.30
2022-09-28T04:34:37.151Z,9.30
2022-09-28T04:37:09.213Z,9.30
2022-09-28T04:39:37.984Z,9.30
2022-09-28T04:42:06.749Z,9.30
2022-09-28T04:44:33.756Z,9.30
2022-09-28T04:47:06.691Z,9.30
2022-09-28T04:49:53.911Z,9.30
2022-09-28T04:52:28.636Z,9.30
2022-09-28T04:54:55.594Z,9.20
2022-09-28T04:57:25.118Z,9.10
2022-09-28T04:59:52.547Z,9.10
2022-09-28T05:02:20.204Z,9.10
2022-09-28T05:05:17.180Z,9.10
2022-09-28T05:08:02.850Z,9.10
2022-09-28T05:10:31.053Z,9.10
2022-09-28T05:12:58.092Z,9.20
2022-09-28T05:15:25.141Z,9.20
2022-09-28T05:17:53.313Z,9.10
2022-09-28T05:20:27.267Z,9.10
2022-09-28T05:22:54.728Z,9.20
2022-09-28T05:25:21.954Z,9.10
2022-09-28T05:28:27.179Z,9.10
2022-09-28T05:31:17.542Z,9.00
2022-09-28T05:34:12.425Z,9.00
2022-09-28T05:36:41.149Z,9.00
2022-09-28T05:39:08.614Z,9.10
2022-09-28T05:41:36.583Z,9.10
2022-09-28T05:44:05.594Z,9.10
2022-09-28T05:46:41.333Z,9.10
2022-09-28T05:49:14.116Z,9.20
2022-09-28T05:51:45.698Z,9.20
2022-09-28T05:54:14.426Z,9.20
2022-09-28T05:56:47.110Z,9.30
2022-09-28T05:59:20.136Z,9.30
2022-09-28T06:01:51.334Z,9.30
2022-09-28T06:04:22.331Z,9.40
2022-09-28T06:06:58.483Z,9.40
2022-09-28T06:09:34.037Z,9.40
2022-09-28T06:12:57.365Z,9.40
2022-09-28T06:18:42.177Z,9.40
2022-09-28T06:24:33.341Z,9.40
2022-09-28T06:27:05.151Z,9.40
2022-09-28T06:29:36.465Z,9.30
2022-09-28T06:32:15.710Z,9.30
2022-09-28T06:34:56.496Z,9.30
2022-09-28T06:37:27.733Z,9.30
2022-09-28T06:39:58.373Z,9.40
2022-09-28T06:42:26.842Z,9.30
2022-09-28T06:45:25.895Z,9.30
2022-09-28T06:48:14.992Z,9.30
2022-09-28T06:50:46.358Z,9.40
2022-09-28T06:53:35.129Z,9.40
2022-09-28T06:56:23.724Z,9.40
2022-09-28T06:59:09.577Z,9.40
2022-09-28T07:01:41.358Z,9.40
2022-09-28T07:04:37.467Z,9.40
2022-09-28T07:07:23.217Z,9.50
2022-09-28T07:10:12.254Z,9.50
2022-09-28T07:13:02.668Z,9.60
2022-09-28T07:15:44.510Z,9.70
2022-09-28T07:18:14.225Z,9.70
2022-09-28T07:20:52.905Z,9.70
2022-09-28T07:23:22.421Z,9.70
2022-09-28T07:26:23.607Z,9.60
2022-09-28T07:29:27.474Z,9.50
2022-09-28T07:32:01.772Z,9.50
2022-09-28T07:34:52.475Z,9.60
2022-09-28T07:37:37.052Z,9.70
2022-09-28T07:40:25.886Z,9.80
2022-09-28T07:42:54.123Z,9.90
2022-09-28T07:45:23.847Z,9.80
2022-09-28T07:47:58.182Z,9.80
2022-09-28T07:50:32.528Z,9.80
2022-09-28T07:53:30.214Z,9.80
2022-09-28T07:56:17.944Z,9.80
2022-09-28T07:58:57.524Z,9.90
2022-09-28T08:01:27.996Z,10.00
2022-09-28T08:03:56.989Z,10.10
2022-09-28T08:06:25.352Z,10.20
2022-09-28T08:08:56.431Z,10.30
2022-09-28T08:11:32.724Z,10.30
2022-09-28T08:14:15.209Z,10.40
2022-09-28T08:17:00.774Z,10.40
2022-09-28T08:20:03.160Z,10.50
2022-09-28T08:22:32.792Z,10.50
2022-09-28T08:25:12.764Z,10.60
2022-09-28T08:27:42.528Z,10.60
2022-09-28T08:30:10.359Z,10.70
2022-09-28T08:32:52.316Z,10.70
2022-09-28T08:35:55.621Z,10.70
2022-09-28T08:38:33.499Z,10.90
2022-09-28T08:41:43.114Z,10.90
2022-09-28T08:48:33.391Z,10.90
2022-09-28T08:52:10.383Z,11.00
2022-09-28T08:55:03.215Z,11.00
2022-09-28T08:57:45.389Z,11.00
2022-09-28T09:00:27.187Z,10.90
2022-09-28T09:06:56.544Z,10.90
2022-09-28T09:09:59.256Z,10.90
2022-09-28T09:51:43.729Z,10.10
2022-09-28T09:54:46.696Z,10.20
2022-09-28T09:57:41.667Z,10.40
2022-09-28T10:00:32.118Z,10.50
2022-09-28T10:03:32.295Z,10.60
2022-09-28T10:06:49.566Z,10.60
2022-09-28T10:09:27.216Z,10.50
2022-09-28T10:12:02.843Z,10.30
2022-09-28T10:14:47.930Z,10.30
2022-09-28T10:17:27.314Z,10.20
2022-09-28T10:23:48.560Z,9.90
2022-09-28T10:26:59.058Z,9.90
2022-09-28T10:30:08.996Z,9.80
2022-09-28T10:32:55.552Z,9.80
2022-09-28T10:35:44.423Z,9.80
2022-09-28T10:39:15.324Z,9.90
2022-09-28T10:41:52.393Z,9.90
2022-09-28T10:44:29.277Z,10.10
2022-09-28T10:50:36.971Z,10.20
2022-09-28T10:53:33.735Z,10.10
2022-09-28T10:56:40.486Z,10.10
2022-09-28T10:59:50.745Z,10.10
2022-09-28T11:02:50.610Z,10.40
2022-09-28T11:05:30.650Z,10.50
2022-09-28T11:08:03.625Z,10.80
2022-09-28T11:10:43.983Z,11.10
2022-09-28T11:13:17.571Z,11.40
2022-09-28T11:16:04.915Z,11.60
2022-09-28T11:18:44.731Z,11.70
2022-09-28T11:21:36.893Z,11.80
2022-09-28T11:24:27.675Z,11.80
2022-09-28T11:27:05.774Z,12.00
2022-09-28T11:29:47.268Z,11.90
2022-09-28T11:32:28.577Z,11.90
2022-09-28T11:35:48.722Z,11.90
2022-09-28T11:38:40.243Z,12.00
2022-09-28T11:41:56.377Z,12.00
2022-09-28T11:44:33.301Z,12.00
2022-09-28T11:47:57.026Z,12.00
2022-09-28T11:51:01.917Z,12.00
2022-09-28T11:54:02.712Z,12.00
2022-09-28T11:56:45.645Z,12.00
2022-09-28T12:03:25.795Z,12.00
2022-09-28T12:06:35.072Z,12.00
2022-09-28T12:09:24.340Z,12.00
2022-09-28T12:12:16.612Z,12.00
2022-09-28T12:38:18.463Z,12.00
2022-09-28T12:45:27.353Z,12.00
2022-09-28T12:48:22.915Z,11.90
2022-09-28T12:51:11.782Z,12.00
2022-09-28T12:53:51.379Z,11.90
2022-09-28T12:56:38.639Z,11.90
2022-09-28T12:59:34.354Z,11.90
2022-09-28T13:02:39.153Z,11.90
2022-09-28T13:05:21.603Z,11.90
2022-09-28T13:07:53.274Z,11.80
2022-09-28T13:10:34.079Z,11.90
2022-09-28T13:13:44.982Z,11.90
2022-09-28T13:16:18.372Z,11.80
2022-09-28T13:19:30.830Z,11.90
2022-09-28T13:22:14.165Z,11.90
2022-09-28T13:24:44.987Z,12.00
2022-09-28T13:27:55.277Z,12.00
2022-09-28T13:30:36.931Z,12.20
2022-09-28T13:36:05.678Z,12.10
2022-09-28T13:38:52.548Z,12.10
2022-09-28T13:41:33.377Z,12.20
2022-09-28T13:44:22.556Z,12.10
2022-09-28T13:46:59.838Z,12.20
2022-09-28T13:50:05.594Z,12.30
2022-09-28T13:52:50.590Z,12.30
2022-09-28T13:55:36.634Z,12.20
2022-09-28T13:58:35.842Z,12.30
2022-09-28T14:01:18.041Z,12.30
2022-09-28T14:04:15.238Z,12.10
2022-09-28T14:06:48.113Z,12.20
2022-09-28T14:09:43.803Z,12.20
2022-09-28T14:12:36.155Z,12.20
2022-09-28T14:15:29.665Z,12.20
2022-09-28T14:18:06.063Z,12.20
2022-09-28T14:20:36.128Z,12.10
2022-09-28T14:23:30.185Z,12.10
2022-09-28T14:26:25.551Z,12.00
2022-09-28T14:29:22.983Z,12.00
2022-09-28T14:31:51.089Z,12.00
2022-09-28T14:34:32.922Z,11.90
2022-09-28T14:37:21.461Z,11.90
2022-09-28T14:40:07.865Z,11.90
2022-09-28T14:42:38.077Z,11.80
2022-09-28T14:45:07.451Z,11.70
2022-09-28T14:48:04.541Z,11.60
2022-09-28T14:50:35.503Z,11.50
2022-09-28T14:53:16.060Z,11.40
2022-09-28T14:56:00.827Z,11.40
2022-09-28T14:58:31.072Z,11.40
2022-09-28T15:01:20.131Z,11.40
2022-09-28T15:03:53.341Z,11.50
2022-09-28T15:06:51.987Z,11.40
2022-09-28T15:09:36.639Z,11.30
2022-09-28T15:12:38.795Z,11.30
2022-09-28T15:15:26.192Z,11.30
2022-09-28T15:18:04.283Z,11.30
2022-09-28T15:20:38.703Z,11.30
2022-09-28T15:23:36.347Z,11.20
2022-09-28T15:26:22.442Z,11.20
2022-09-28T15:28:57.267Z,11.20
2022-09-28T15:31:37.838Z,11.20
2022-09-28T15:34:49.832Z,11.20
2022-09-28T15:37:49.132Z,11.20
2022-09-28T15:58:17.969Z,11.00
2022-09-28T16:00:48.334Z,11.00
2022-09-28T16:03:31.821Z,10.90
2022-09-28T16:05:59.800Z,11.00
2022-09-28T16:08:37.377Z,11.00
2022-09-28T16:11:28.031Z,11.00
2022-09-28T16:14:02.210Z,11.00
2022-09-28T16:16:53.315Z,11.00
2022-09-28T16:19:33.884Z,11.00
2022-09-28T16:22:08.242Z,11.00
2022-09-28T16:24:43.489Z,11.00
2022-09-28T16:27:28.167Z,11.00
2022-09-28T16:30:24.692Z,11.00
2022-09-28T16:33:00.144Z,10.90
2022-09-28T16:35:47.939Z,10.90
2022-09-28T16:41:13.844Z,10.90
2022-09-28T16:43:45.741Z,10.90
2022-09-28T16:46:21.688Z,10.80
2022-09-28T16:48:54.418Z,10.80
2022-09-28T16:51:28.118Z,10.80
2022-09-28T16:54:19.500Z,10.70
2022-09-28T16:56:48.604Z,10.70
2022-09-28T16:59:19.762Z,10.60
2022-09-28T17:01:52.083Z,10.60
2022-09-28T17:04:21.773Z,10.50
2022-09-28T17:06:56.036Z,10.50
2022-09-28T17:09:28.541Z,10.50
2022-09-28T17:11:59.994Z,10.40
2022-09-28T17:14:40.786Z,10.30
2022-09-28T17:17:13.736Z,10.10
2022-09-28T17:19:49.945Z,10.10
2022-09-28T17:25:06.572Z,10.00
2022-09-28T17:27:35.676Z,9.90
2022-09-28T17:30:07.284Z,9.90
2022-09-28T17:32:35.490Z,9.80
2022-09-28T17:35:23.591Z,9.70
2022-09-28T17:37:51.302Z,9.60
2022-09-28T17:40:25.953Z,9.60
2022-09-28T17:42:55.492Z,9.50
2022-09-28T17:45:27.180Z,9.50
2022-09-28T17:47:55.465Z,9.40
2022-09-28T17:50:29.774Z,9.40
2022-09-28T17:53:00.353Z,9.30
2022-09-28T17:55:30.510Z,9.30
2022-09-28T17:57:59.295Z,9.30
2022-09-28T18:00:28.196Z,9.30
2022-09-28T18:02:57.042Z,9.30
2022-09-28T18:05:26.074Z,9.30
2022-09-28T18:07:59.317Z,9.20
2022-09-28T18:10:27.745Z,9.10
2022-09-28T18:12:55.726Z,9.10
2022-09-28T18:15:23.499Z,9.00
2022-09-28T18:17:54.324Z,9.00
2022-09-28T18:20:22.003Z,8.90
2022-09-28T18:22:49.602Z,8.90
2022-09-28T18:25:17.108Z,8.90
2022-09-28T18:27:44.303Z,8.90
2022-09-28T18:30:12.546Z,8.90
2022-09-28T18:32:42.713Z,8.90
2022-09-28T18:35:11.776Z,8.90
2022-09-28T18:37:40.416Z,8.90
2022-09-28T18:40:12.135Z,8.90
2022-09-28T18:42:40.369Z,8.80
2022-09-28T18:45:13.426Z,8.80
2022-09-28T18:47:40.536Z,8.80
2022-09-28T18:50:08.927Z,8.80
2022-09-28T18:52:37.072Z,8.80
2022-09-28T18:55:06.274Z,8.80
2022-09-28T18:57:33.851Z,8.70
2022-09-28T19:00:02.208Z,8.60
2022-09-28T19:02:29.450Z,8.60
2022-09-28T19:04:56.921Z,8.60
2022-09-28T19:07:25.421Z,8.60
2022-09-28T19:09:53.591Z,8.50
2022-09-28T19:12:24.462Z,8.50
2022-09-28T19:14:52.124Z,8.50
2022-09-28T19:17:19.974Z,8.40
2022-09-28T19:19:52.094Z,8.40
2022-09-28T19:22:19.718Z,8.40
2022-09-28T19:24:47.279Z,8.40
2022-09-28T19:27:14.755Z,8.40
2022-09-28T19:29:45.228Z,8.40
2022-09-28T19:32:13.140Z,8.40
2022-09-28T19:34:40.735Z,8.40
2022-09-28T19:37:08.116Z,8.40
2022-09-28T19:39:35.655Z,8.40
2022-09-28T19:42:03.302Z,8.40
2022-09-28T19:44:34.315Z,8.40
2022-09-28T19:47:10.442Z,8.40
2022-09-28T19:49:39.759Z,8.30
2022-09-28T19:52:16.381Z,8.30
2022-09-28T19:54:58.052Z,8.20
2022-09-28T19:57:28.353Z,8.20
2022-09-28T20:00:01.762Z,8.20
2022-09-28T20:02:32.971Z,8.30
2022-09-28T20:05:00.677Z,8.20
2022-09-28T20:07:27.905Z,8.20
2022-09-28T20:09:55.519Z,8.20
2022-09-28T20:12:23.714Z,8.20
2022-09-28T20:14:51.204Z,8.20
2022-09-28T20:17:19.728Z,8.20
2022-09-28T20:19:48.077Z,8.20
2022-09-28T20:22:17.156Z,8.30
2022-09-28T20:24:44.581Z,8.20
2022-09-28T20:27:12.290Z,8.20
2022-09-28T20:29:39.865Z,8.20
2022-09-28T20:32:12.118Z,8.20
2022-09-28T20:34:39.296Z,8.10
2022-09-28T20:37:06.952Z,8.10
2022-09-28T20:39:34.601Z,8.10
2022-09-28T20:42:03.283Z,8.10
2022-09-28T20:44:31.168Z,8.00
2022-09-28T20:46:58.435Z,8.00
2022-09-28T20:49:27.550Z,8.10
2022-09-28T20:51:55.148Z,8.10
2022-09-28T20:54:22.868Z,8.10
2022-09-28T20:56:50.092Z,8.00
2022-09-28T20:59:17.756Z,8.00
2022-09-28T21:01:45.047Z,8.00
2022-09-28T21:04:12.807Z,8.00
2022-09-28T21:06:42.331Z,7.90
2022-09-28T21:09:11.886Z,7.90
2022-09-28T21:11:42.732Z,7.90
2022-09-28T21:14:12.899Z,7.90
2022-09-28T21:16:40.475Z,7.80
2022-09-28T21:19:08.056Z,7.80
2022-09-28T21:21:35.387Z,7.80
2022-09-28T21:24:03.350Z,7.70
2022-09-28T21:26:31.384Z,7.70
2022-09-28T21:29:01.458Z,7.70
2022-09-28T21:31:52.259Z,7.60
2022-09-28T21:34:21.200Z,7.60
2022-09-28T21:36:51.617Z,7.70
2022-09-28T21:39:22.953Z,7.70
2022-09-28T21:41:50.471Z,7.60
2022-09-28T21:44:18.277Z,7.60
2022-09-28T21:46:45.945Z,7.50
2022-09-28T21:49:14.339Z,7.60
2022-09-28T21:51:47.451Z,7.60
2022-09-28T21:54:15.447Z,7.70
2022-09-28T21:56:42.979Z,7.70
2022-09-28T21:59:10.551Z,7.80
2022-09-28T22:01:38.291Z,7.80
2022-09-28T22:04:06.284Z,7.80
2022-09-28T22:06:33.865Z,7.70
2022-09-28T22:09:01.292Z,7.70
2022-09-28T22:11:28.882Z,7.70
2022-09-28T22:13:59.584Z,7.70
2022-09-28T22:16:30.671Z,7.70
2022-09-28T22:18:59.191Z,7.70
2022-09-28T22:21:29.438Z,7.70
2022-09-28T22:24:03.587Z,7.80
2022-09-28T22:26:32.174Z,7.80
2022-09-28T22:29:04.721Z,7.80
2022-09-28T22:31:37.191Z,7.90
2022-09-28T22:34:05.497Z,7.90
2022-09-28T22:36:33.312Z,7.90
2022-09-28T22:39:00.708Z,7.90
2022-09-28T22:41:28.701Z,7.90
2022-09-28T22:43:56.323Z,7.90
2022-09-28T22:46:26.519Z,8.00
2022-09-28T22:48:56.055Z,8.00
2022-09-28T22:51:24.942Z,8.00
2022-09-28T22:53:51.987Z,8.00
2022-09-28T22:56:19.465Z,8.00
2022-09-28T22:58:47.114Z,8.00
2022-09-28T23:01:21.628Z,8.00
2022-09-28T23:03:50.155Z,8.10
2022-09-28T23:06:19.441Z,8.00
2022-09-28T23:08:47.507Z,8.10
2022-09-28T23:11:16.100Z,8.10
2022-09-28T23:13:47.960Z,8.10
2022-09-28T23:16:15.210Z,8.00
2022-09-28T23:18:45.745Z,8.00
2022-09-28T23:21:18.626Z,8.10
2022-09-28T23:23:47.520Z,8.10
2022-09-28T23:26:26.415Z,8.10
2022-09-28T23:28:54.312Z,8.00
2022-09-28T23:31:24.650Z,8.00
2022-09-28T23:33:52.216Z,8.00
2022-09-28T23:36:19.232Z,8.00
2022-09-28T23:38:46.266Z,8.00
2022-09-28T23:41:13.874Z,8.00
2022-09-28T23:43:40.936Z,8.00
2022-09-28T23:46:08.683Z,7.90
2022-09-28T23:48:36.040Z,8.00
2022-09-28T23:51:04.005Z,7.90
2022-09-28T23:53:32.394Z,8.00
2022-09-28T23:56:00.062Z,7.90
2022-09-28T23:58:27.709Z,7.90
